createdAt,value
2018-04-06T00:01:25.516Z,9.90
2018-04-06T00:03:54.766Z,12.60
2018-04-06T00:06:25.176Z,11.37
2018-04-06T00:08:54.380Z,12.10
2018-04-06T00:11:23.901Z,10.77
2018-04-06T00:13:53.480Z,11.53
2018-04-06T00:16:23.270Z,13.33
2018-04-06T00:18:53.905Z,9.33
2018-04-06T00:21:24.065Z,8.17
2018-04-06T00:23:53.798Z,8.73
2018-04-06T00:26:23.785Z,6.77
2018-04-06T00:28:53.700Z,8.90
2018-04-06T00:31:23.878Z,13.30
2018-04-06T00:33:53.556Z,5.97
2018-04-06T00:36:24.098Z,7.47
2018-04-06T00:38:53.990Z,7.20
2018-04-06T00:41:24.153Z,10.60
2018-04-06T00:43:56.406Z,6.47
2018-04-06T00:46:25.881Z,9.40
2018-04-06T00:48:55.229Z,8.37
2018-04-06T00:51:24.794Z,7.83
2018-04-06T00:53:55.047Z,8.00
2018-04-06T00:56:24.998Z,8.20
2018-04-06T00:58:55.234Z,7.90
2018-04-06T01:01:26.129Z,8.02
2018-04-06T01:03:56.481Z,7.28
2018-04-06T01:06:26.222Z,8.23
2018-04-06T01:08:55.719Z,7.00
2018-04-06T01:11:26.971Z,7.30
2018-04-06T01:13:57.094Z,7.53
2018-04-06T01:16:25.639Z,9.55
2018-04-06T01:18:55.307Z,7.77
2018-04-06T01:21:24.394Z,8.80
2018-04-06T01:23:53.899Z,10.83
2018-04-06T01:26:23.610Z,13.20
2018-04-06T01:28:53.480Z,9.45
2018-04-06T01:31:22.593Z,10.15
2018-04-06T01:33:52.088Z,12.13
2018-04-06T01:36:20.623Z,7.43
2018-04-06T01:38:49.219Z,9.82
2018-04-06T01:41:18.181Z,11.23
2018-04-06T01:43:46.565Z,8.02
2018-04-06T01:46:15.225Z,11.27
2018-04-06T01:48:44.604Z,10.23
2018-04-06T01:51:13.496Z,7.47
2018-04-06T01:53:42.426Z,8.15
2018-04-06T01:56:11.212Z,8.05
2018-04-06T01:58:39.783Z,10.13
2018-04-06T02:01:08.581Z,10.43
2018-04-06T02:03:36.991Z,12.40
2018-04-06T02:06:06.024Z,10.32
2018-04-06T02:08:36.031Z,9.32
2018-04-06T02:11:05.210Z,8.52
2018-04-06T02:13:34.108Z,10.27
2018-04-06T02:16:02.626Z,6.37
2018-04-06T02:18:31.040Z,8.20
2018-04-06T02:20:59.607Z,9.45
2018-04-06T02:23:28.350Z,8.48
2018-04-06T02:25:56.984Z,10.02
2018-04-06T02:28:25.300Z,10.80
2018-04-06T02:30:53.870Z,10.60
2018-04-06T02:33:22.748Z,10.23
2018-04-06T02:35:51.779Z,12.45
2018-04-06T02:38:20.318Z,8.88
2018-04-06T02:40:49.225Z,9.52
2018-04-06T02:43:17.437Z,10.93
2018-04-06T02:45:46.114Z,11.60
2018-04-06T02:48:15.280Z,8.55
2018-04-06T02:50:43.762Z,11.68
2018-04-06T02:53:12.946Z,7.25
2018-04-06T02:55:41.944Z,9.00
2018-04-06T02:58:10.613Z,8.00
2018-04-06T03:00:40.275Z,14.32
2018-04-06T03:03:10.263Z,10.95
2018-04-06T03:05:39.284Z,11.68
2018-04-06T03:08:07.737Z,11.23
2018-04-06T03:10:37.946Z,11.95
2018-04-06T03:13:06.601Z,10.32
2018-04-06T03:15:35.042Z,15.00
2018-04-06T03:18:04.310Z,7.85
2018-04-06T03:20:32.739Z,9.50
2018-04-06T03:23:02.088Z,11.48
2018-04-06T03:25:30.667Z,10.25
2018-04-06T03:27:59.445Z,9.75
2018-04-06T03:30:28.130Z,9.90
2018-04-06T03:32:57.382Z,11.25
2018-04-06T03:35:27.261Z,8.73
2018-04-06T03:37:55.351Z,7.53
2018-04-06T03:40:24.401Z,8.02
2018-04-06T03:42:52.942Z,8.18
2018-04-06T03:45:21.830Z,8.65
2018-04-06T03:47:52.116Z,11.07
2018-04-06T03:50:20.498Z,9.18
2018-04-06T03:52:49.185Z,7.45
2018-04-06T03:55:17.944Z,8.73
2018-04-06T03:57:46.296Z,10.82
2018-04-06T04:00:15.568Z,12.93
2018-04-06T04:02:44.098Z,9.18
2018-04-06T04:05:12.820Z,8.30
2018-04-06T04:07:41.695Z,11.30
2018-04-06T04:10:10.300Z,10.45
2018-04-06T04:12:39.212Z,12.93
2018-04-06T04:15:08.281Z,14.23
2018-04-06T04:17:37.713Z,10.07
2018-04-06T04:20:07.182Z,8.55
2018-04-06T04:22:36.245Z,8.65
2018-04-06T04:25:05.061Z,11.00
2018-04-06T04:27:34.070Z,10.20
2018-04-06T04:30:04.379Z,12.27
2018-04-06T04:32:33.212Z,12.20
2018-04-06T04:35:02.028Z,9.57
2018-04-06T04:37:30.345Z,9.50
2018-04-06T04:39:59.680Z,9.15
2018-04-06T04:42:28.230Z,16.55
2018-04-06T04:44:58.149Z,10.38
2018-04-06T04:47:27.013Z,11.18
2018-04-06T04:49:55.598Z,12.70
2018-04-06T04:52:24.013Z,11.15
2018-04-06T04:54:53.858Z,11.48
2018-04-06T04:57:22.408Z,11.52
2018-04-06T04:59:51.905Z,9.80
2018-04-06T05:02:21.005Z,10.35
2018-04-06T05:04:50.059Z,12.37
2018-04-06T05:07:18.748Z,9.95
2018-04-06T05:09:48.093Z,10.40
2018-04-06T05:12:18.101Z,10.30
2018-04-06T05:14:47.461Z,11.63
2018-04-06T05:17:17.238Z,10.88
2018-04-06T05:19:46.476Z,13.62
2018-04-06T05:22:15.201Z,12.32
2018-04-06T05:24:43.937Z,10.63
2018-04-06T05:27:12.863Z,15.80
2018-04-06T05:29:41.408Z,14.43
2018-04-06T05:32:10.439Z,13.70
2018-04-06T05:34:41.025Z,11.73
2018-04-06T05:37:10.460Z,10.77
2018-04-06T05:39:39.980Z,12.85
2018-04-06T05:42:09.572Z,11.55
2018-04-06T05:44:38.382Z,14.15
2018-04-06T05:47:08.172Z,14.93
2018-04-06T05:49:37.600Z,16.48
2018-04-06T05:52:07.038Z,18.50
2018-04-06T05:54:36.196Z,13.77
2018-04-06T05:57:06.122Z,12.07
2018-04-06T05:59:35.727Z,19.83
2018-04-06T06:02:06.009Z,15.18
2018-04-06T06:04:35.137Z,16.02
2018-04-06T06:07:05.072Z,12.03
2018-04-06T06:09:34.782Z,13.85
2018-04-06T06:12:04.362Z,19.45
2018-04-06T06:14:34.327Z,14.05
2018-04-06T06:17:06.486Z,13.18
2018-04-06T06:19:35.742Z,18.35
2018-04-06T06:22:05.073Z,19.00
2018-04-06T06:24:34.456Z,14.20
2018-04-06T06:27:04.742Z,14.13
2018-04-06T06:29:36.540Z,17.73
2018-04-06T06:32:06.062Z,14.18
2018-04-06T06:34:35.416Z,12.52
2018-04-06T06:37:04.930Z,12.85
2018-04-06T06:39:35.424Z,10.60
2018-04-06T06:42:05.270Z,14.93
2018-04-06T06:44:35.241Z,9.37
2018-04-06T06:47:05.249Z,15.20
2018-04-06T06:49:34.301Z,10.57
2018-04-06T06:52:03.846Z,13.47
2018-04-06T06:54:33.137Z,11.80
2018-04-06T06:57:03.883Z,12.57
2018-04-06T06:59:33.762Z,9.50
2018-04-06T07:02:03.967Z,12.97
2018-04-06T07:04:34.045Z,19.13
2018-04-06T07:07:03.161Z,12.03
2018-04-06T07:09:32.920Z,12.47
2018-04-06T07:12:03.113Z,10.50
2018-04-06T07:14:32.274Z,9.33
2018-04-06T07:17:01.504Z,12.63
2018-04-06T07:19:31.710Z,9.53
2018-04-06T07:22:01.745Z,8.57
2018-04-06T07:24:30.748Z,10.00
2018-04-06T07:27:01.464Z,10.83
2018-04-06T07:29:31.222Z,9.60
2018-04-06T07:32:00.458Z,7.10
2018-04-06T07:34:29.469Z,7.63
2018-04-06T07:36:58.667Z,11.20
2018-04-06T07:39:27.591Z,12.93
2018-04-06T07:41:57.401Z,8.70
2018-04-06T07:44:26.823Z,11.13
2018-04-06T07:46:56.915Z,13.50
2018-04-06T07:49:26.713Z,10.20
2018-04-06T07:51:56.612Z,8.63
2018-04-06T07:54:25.711Z,11.83
2018-04-06T07:56:54.720Z,8.10
2018-04-06T07:59:24.336Z,13.03
2018-04-06T08:01:54.225Z,13.93
2018-04-06T08:04:23.416Z,19.77
2018-04-06T08:06:52.662Z,7.37
2018-04-06T08:09:21.794Z,10.90
2018-04-06T08:11:51.283Z,10.93
2018-04-06T08:14:20.339Z,9.73
2018-04-06T08:16:51.162Z,8.90
2018-04-06T08:19:20.389Z,9.90
2018-04-06T08:21:49.641Z,7.23
2018-04-06T08:24:19.078Z,9.47
2018-04-06T08:26:48.876Z,7.73
2018-04-06T08:29:18.779Z,8.17
2018-04-06T08:31:49.104Z,9.93
2018-04-06T08:34:19.491Z,13.83
2018-04-06T08:36:49.578Z,17.80
2018-04-06T08:39:19.522Z,8.03
2018-04-06T08:41:49.176Z,9.80
2018-04-06T08:44:18.506Z,8.80
2018-04-06T08:46:47.609Z,8.73
2018-04-06T08:49:16.951Z,10.93
2018-04-06T08:51:46.196Z,6.87
2018-04-06T08:54:15.179Z,7.83
2018-04-06T08:56:44.859Z,10.13
2018-04-06T08:59:14.084Z,7.53
2018-04-06T09:01:44.123Z,9.70
2018-04-06T09:04:13.604Z,8.30
2018-04-06T09:06:43.384Z,7.47
2018-04-06T09:09:12.954Z,7.30
2018-04-06T09:11:42.497Z,8.67
2018-04-06T09:14:11.572Z,3.63
2018-04-06T09:16:41.361Z,4.43
2018-04-06T09:19:10.560Z,4.97
2018-04-06T09:21:39.638Z,5.47
2018-04-06T09:24:10.668Z,7.07
2018-04-06T09:26:40.455Z,6.13
2018-04-06T09:29:10.625Z,8.13
2018-04-06T09:31:40.792Z,5.17
2018-04-06T09:34:09.835Z,4.73
2018-04-06T09:36:38.776Z,3.87
2018-04-06T09:39:07.913Z,4.57
2018-04-06T09:41:36.913Z,4.83
2018-04-06T09:44:05.946Z,6.03
2018-04-06T09:46:35.234Z,3.57
2018-04-06T09:49:04.194Z,3.90
2018-04-06T09:51:33.347Z,7.03
2018-04-06T09:54:02.955Z,4.10
2018-04-06T09:56:31.924Z,2.80
2018-04-06T09:59:01.205Z,2.90
2018-04-06T10:01:35.468Z,4.60
2018-04-06T10:04:04.435Z,4.03
2018-04-06T10:06:34.132Z,2.10
2018-04-06T10:09:04.681Z,2.30
2018-04-06T10:11:34.631Z,3.07
2018-04-06T10:14:04.030Z,2.00
2018-04-06T10:16:33.521Z,6.87
2018-04-06T10:19:03.537Z,1.83
2018-04-06T10:21:33.271Z,1.80
2018-04-06T10:24:02.341Z,2.03
2018-04-06T10:26:31.445Z,2.47
2018-04-06T10:29:01.059Z,2.17
2018-04-06T10:31:30.247Z,2.23
2018-04-06T10:33:59.989Z,2.43
2018-04-06T10:36:29.376Z,2.37
2018-04-06T10:38:58.369Z,2.73
2018-04-06T10:41:27.472Z,3.10
2018-04-06T10:43:57.464Z,1.80
2018-04-06T10:46:27.558Z,10.03
2018-04-06T10:48:56.855Z,10.20
2018-04-06T10:51:25.851Z,2.63
2018-04-06T10:53:54.860Z,2.40
2018-04-06T10:56:24.627Z,2.70
2018-04-06T10:58:53.756Z,3.20
2018-04-06T11:01:23.510Z,5.90
2018-04-06T11:03:53.236Z,3.97
2018-04-06T11:06:23.523Z,7.23
2018-04-06T11:08:52.545Z,3.13
2018-04-06T11:11:21.691Z,2.40
2018-04-06T11:13:51.634Z,3.20
2018-04-06T11:16:20.725Z,3.33
2018-04-06T11:18:59.354Z,4.57
2018-04-06T11:21:41.137Z,4.23
2018-04-06T11:27:08.240Z,7.67
2018-04-06T11:29:38.206Z,6.57
2018-04-06T11:32:08.003Z,4.97
2018-04-06T11:34:37.131Z,3.60
2018-04-06T11:37:06.166Z,3.63
2018-04-06T11:39:35.506Z,5.37
2018-04-06T11:42:05.005Z,6.80
2018-04-06T11:44:34.555Z,4.17
2018-04-06T11:47:03.613Z,3.83
2018-04-06T11:49:33.222Z,4.13
2018-04-06T11:52:02.995Z,5.53
2018-04-06T11:54:32.136Z,5.27
2018-04-06T11:57:01.008Z,3.53
2018-04-06T11:59:30.068Z,3.60
2018-04-06T12:01:59.076Z,4.47
2018-04-06T12:04:28.940Z,6.47
2018-04-06T12:06:58.248Z,2.77
2018-04-06T12:09:27.520Z,4.50
2018-04-06T12:11:56.681Z,3.90
2018-04-06T12:14:26.842Z,6.43
2018-04-06T12:16:57.084Z,5.17
2018-04-06T12:19:26.262Z,6.33
2018-04-06T12:21:55.312Z,5.57
2018-04-06T12:24:24.522Z,4.70
2018-04-06T12:26:54.249Z,3.03
2018-04-06T12:29:23.555Z,5.33
2018-04-06T12:31:53.634Z,2.97
2018-04-06T12:34:22.628Z,5.93
2018-04-06T12:36:51.561Z,7.50
2018-04-06T12:39:21.228Z,3.57
2018-04-06T12:41:50.161Z,3.20
2018-04-06T12:44:20.033Z,4.70
2018-04-06T12:46:49.081Z,4.00
2018-04-06T12:49:17.837Z,6.47
2018-04-06T12:51:47.518Z,3.00
2018-04-06T12:54:17.533Z,3.77
2018-04-06T12:56:46.561Z,3.67
2018-04-06T12:59:16.878Z,9.37
2018-04-06T13:01:46.339Z,6.67
2018-04-06T13:04:15.187Z,2.70
2018-04-06T13:06:44.907Z,2.87
2018-04-06T13:09:13.997Z,4.40
2018-04-06T13:11:43.042Z,5.77
2018-04-06T13:14:12.011Z,3.53
2018-04-06T13:16:41.008Z,4.40
2018-04-06T13:19:09.821Z,4.20
2018-04-06T13:21:38.785Z,5.27
2018-04-06T13:24:07.759Z,4.13
2018-04-06T13:26:36.668Z,3.10
2018-04-06T13:29:06.339Z,3.50
2018-04-06T13:31:37.631Z,3.50
2018-04-06T13:34:06.621Z,3.33
2018-04-06T13:36:35.635Z,4.93
2018-04-06T13:39:05.040Z,3.17
2018-04-06T13:41:34.100Z,5.60
2018-04-06T13:44:03.170Z,2.67
2018-04-06T13:46:32.207Z,3.10
2018-04-06T13:49:01.225Z,4.77
2018-04-06T13:51:30.887Z,2.57
2018-04-06T13:54:00.145Z,5.50
2018-04-06T13:56:30.517Z,3.57
2018-04-06T13:59:00.181Z,3.30
2018-04-06T14:01:30.096Z,4.73
2018-04-06T14:03:59.776Z,2.13
2018-04-06T14:06:28.785Z,6.10
2018-04-06T14:09:00.677Z,3.47
2018-04-06T14:11:33.244Z,2.93
2018-04-06T14:14:02.466Z,3.90
2018-04-06T14:16:31.309Z,2.03
2018-04-06T14:19:00.847Z,2.93
2018-04-06T14:21:29.814Z,2.10
2018-04-06T14:23:59.465Z,2.07
2018-04-06T14:26:28.482Z,3.03
2018-04-06T14:28:57.292Z,2.83
2018-04-06T14:31:26.816Z,8.67
2018-04-06T14:33:56.408Z,2.43
2018-04-06T14:36:26.032Z,6.40
2018-04-06T14:38:55.065Z,3.87
2018-04-06T14:41:23.898Z,2.87
2018-04-06T14:43:52.567Z,5.10
2018-04-06T14:46:21.405Z,6.60
2018-04-06T14:48:49.981Z,3.70
2018-04-06T14:51:18.749Z,2.70
2018-04-06T14:53:48.338Z,4.60
2018-04-06T14:56:18.064Z,3.03
2018-04-06T14:58:47.797Z,3.93
2018-04-06T15:01:16.517Z,2.03
2018-04-06T15:03:46.008Z,2.83
2018-04-06T15:06:15.854Z,3.53
2018-04-06T15:08:44.715Z,1.63
2018-04-06T15:11:13.451Z,5.13
2018-04-06T15:13:42.545Z,3.17
2018-04-06T15:16:12.574Z,5.07
2018-04-06T15:18:42.408Z,4.33
2018-04-06T15:21:11.303Z,3.23
2018-04-06T15:23:40.143Z,4.13
2018-04-06T15:26:09.717Z,2.97
2018-04-06T15:28:38.918Z,5.33
2018-04-06T15:31:07.811Z,3.17
2018-04-06T15:33:37.893Z,3.13
2018-04-06T15:36:06.857Z,4.67
2018-04-06T15:38:36.741Z,6.23
2018-04-06T15:41:05.455Z,3.43
2018-04-06T15:43:35.014Z,3.23
2018-04-06T15:46:04.026Z,2.50
2018-04-06T15:48:33.267Z,5.13
2018-04-06T15:51:02.170Z,2.40
2018-04-06T15:53:31.066Z,5.87
2018-04-06T15:55:59.925Z,2.70
2018-04-06T15:58:28.915Z,2.50
2018-04-06T16:00:58.026Z,4.00
2018-04-06T16:03:26.904Z,2.73
2018-04-06T16:05:55.975Z,2.07
2018-04-06T16:08:24.873Z,4.17
2018-04-06T16:10:54.491Z,3.00
2018-04-06T16:13:23.993Z,2.20
2018-04-06T16:15:53.658Z,3.63
2018-04-06T16:18:23.668Z,4.63
2018-04-06T16:20:52.720Z,8.07
2018-04-06T16:23:21.672Z,2.03
2018-04-06T16:25:50.922Z,4.57
2018-04-06T16:28:19.946Z,3.93
2018-04-06T16:30:50.076Z,4.97
2018-04-06T16:33:19.335Z,3.77
2018-04-06T16:35:48.441Z,5.77
2018-04-06T16:38:17.676Z,2.73
2018-04-06T16:40:46.760Z,2.53
2018-04-06T16:43:16.744Z,2.63
2018-04-06T16:45:46.586Z,2.37
2018-04-06T16:48:15.475Z,4.70
2018-04-06T16:50:45.621Z,3.77
2018-04-06T16:53:15.358Z,2.87
2018-04-06T16:55:44.499Z,5.00
2018-04-06T16:58:13.395Z,3.60
2018-04-06T17:00:43.088Z,4.37
2018-04-06T17:03:12.000Z,5.33
2018-04-06T17:05:40.940Z,2.13
2018-04-06T17:08:11.291Z,6.90
2018-04-06T17:10:40.624Z,4.57
2018-04-06T17:13:09.764Z,4.77
2018-04-06T17:15:39.041Z,3.73
2018-04-06T17:18:08.661Z,4.17
2018-04-06T17:20:37.901Z,3.47
2018-04-06T17:23:07.813Z,4.27
2018-04-06T17:25:36.569Z,4.57
2018-04-06T17:28:06.113Z,3.33
2018-04-06T17:30:35.760Z,2.73
2018-04-06T17:33:05.108Z,3.40
2018-04-06T17:35:34.025Z,2.53
2018-04-06T17:38:03.536Z,3.90
2018-04-06T17:40:32.337Z,1.93
2018-04-06T17:43:01.970Z,3.70
2018-04-06T17:45:30.714Z,5.47
2018-04-06T17:47:59.559Z,2.97
2018-04-06T17:50:28.371Z,4.07
2018-04-06T17:52:57.019Z,3.40
2018-04-06T17:55:25.516Z,4.10
2018-04-06T17:57:54.463Z,4.97
2018-04-06T18:00:23.892Z,4.87
2018-04-06T18:02:54.437Z,4.03
2018-04-06T18:05:23.033Z,5.33
2018-04-06T18:07:54.514Z,5.73
2018-04-06T18:10:23.976Z,6.00
2018-04-06T18:12:52.786Z,3.40
2018-04-06T18:15:21.647Z,2.07
2018-04-06T18:17:51.363Z,4.03
2018-04-06T18:20:20.895Z,3.13
2018-04-06T18:22:49.705Z,7.03
2018-04-06T18:25:18.362Z,3.67
2018-04-06T18:27:47.113Z,3.57
2018-04-06T18:30:16.628Z,6.97
2018-04-06T18:32:45.430Z,4.47
2018-04-06T18:35:14.179Z,3.90
2018-04-06T18:37:44.485Z,6.97
2018-04-06T18:40:13.661Z,6.20
2018-04-06T18:42:42.423Z,12.20
2018-04-06T18:45:11.269Z,17.10
2018-04-06T18:47:41.002Z,18.17
2018-04-06T18:50:09.682Z,7.23
2018-04-06T18:52:38.258Z,4.93
2018-04-06T18:55:07.042Z,4.60
2018-04-06T18:57:36.506Z,4.23
2018-04-06T19:04:40.576Z,5.37
2018-04-06T19:07:10.092Z,6.87
2018-04-06T19:09:39.530Z,5.30
2018-04-06T19:12:08.053Z,6.03
2018-04-06T19:14:36.907Z,5.50
2018-04-06T19:17:05.653Z,7.47
2018-04-06T19:19:35.293Z,5.73
2018-04-06T19:22:04.276Z,17.67
2018-04-06T19:24:33.012Z,7.13
2018-04-06T19:27:02.268Z,8.43
2018-04-06T19:29:31.227Z,8.57
2018-04-06T19:32:00.605Z,5.70
2018-04-06T19:34:30.262Z,6.40
2018-04-06T19:36:59.048Z,8.23
2018-04-06T19:39:28.142Z,6.27
2018-04-06T19:41:56.895Z,6.33
2018-04-06T19:44:26.194Z,9.43
2018-04-06T19:46:55.687Z,7.17
2018-04-06T19:49:24.620Z,7.00
2018-04-06T19:51:53.510Z,10.70
2018-04-06T19:54:22.120Z,8.90
2018-04-06T19:56:50.941Z,10.37
2018-04-06T19:59:19.416Z,7.53
2018-04-06T20:01:48.057Z,6.93
2018-04-06T20:04:16.919Z,7.63
2018-04-06T20:06:46.504Z,9.40
2018-04-06T20:09:16.119Z,10.30
2018-04-06T20:11:45.481Z,7.40
2018-04-06T20:14:14.459Z,6.97
2018-04-06T20:16:43.375Z,7.33
2018-04-06T20:19:11.946Z,6.57
2018-04-06T20:21:40.550Z,6.13
2018-04-06T20:24:09.273Z,4.73
2018-04-06T20:26:37.993Z,3.53
2018-04-06T20:29:06.723Z,3.33
2018-04-06T20:31:36.548Z,5.17
2018-04-06T20:34:05.254Z,3.70
2018-04-06T20:36:34.103Z,4.20
2018-04-06T20:39:03.828Z,5.60
2018-04-06T20:41:33.128Z,4.20
2018-04-06T20:44:01.964Z,3.00
2018-04-06T20:46:30.685Z,3.83
2018-04-06T20:48:59.511Z,3.13
2018-04-06T20:51:28.327Z,3.97
2018-04-06T20:53:56.977Z,9.27
2018-04-06T20:56:25.682Z,4.27
2018-04-06T20:58:54.324Z,3.87
2018-04-06T21:01:23.703Z,3.23
2018-04-06T21:03:52.489Z,3.93
2018-04-06T21:06:21.233Z,3.03
2018-04-06T21:08:51.356Z,3.70
2018-04-06T21:11:20.304Z,4.17
2018-04-06T21:13:49.666Z,4.50
2018-04-06T21:16:18.697Z,4.80
2018-04-06T21:18:47.705Z,4.63
2018-04-06T21:21:18.374Z,5.33
2018-04-06T21:23:47.035Z,3.53
2018-04-06T21:26:15.981Z,3.33
2018-04-06T21:28:44.671Z,3.43
2018-04-06T21:31:13.712Z,3.57
2018-04-06T21:34:04.497Z,5.63
2018-04-06T21:36:34.299Z,3.73
2018-04-06T21:39:04.374Z,5.17
2018-04-06T21:41:33.568Z,4.70
2018-04-06T21:44:02.483Z,4.33
2018-04-06T21:46:31.293Z,4.90
2018-04-06T21:49:01.108Z,4.60
2018-04-06T21:51:30.937Z,4.33
2018-04-06T21:53:59.952Z,4.13
2018-04-06T21:56:29.430Z,4.67
2018-04-06T21:58:58.981Z,6.13
2018-04-06T22:01:27.842Z,7.03
2018-04-06T22:03:56.930Z,8.27
2018-04-06T22:06:26.719Z,7.37
2018-04-06T22:08:56.414Z,5.03
2018-04-06T22:11:26.288Z,5.83
2018-04-06T22:13:55.518Z,4.47
2018-04-06T22:16:24.634Z,4.77
2018-04-06T22:18:53.773Z,5.60
2018-04-06T22:21:22.642Z,5.73
2018-04-06T22:23:51.696Z,3.70
2018-04-06T22:26:20.816Z,5.73
2018-04-06T22:28:52.158Z,3.93
2018-04-06T22:31:23.473Z,3.57
2018-04-06T22:33:53.363Z,5.07
2018-04-06T22:36:24.033Z,6.43
2018-04-06T22:38:53.892Z,4.27
2018-04-06T22:41:23.851Z,5.57
2018-04-06T22:43:52.938Z,3.63
2018-04-06T22:46:22.891Z,4.13
2018-04-06T22:48:52.333Z,5.20
2018-04-06T22:51:21.232Z,4.03
2018-04-06T22:53:50.350Z,5.10
2018-04-06T22:56:19.298Z,5.87
2018-04-06T22:58:48.543Z,4.50
2018-04-06T23:01:17.612Z,6.30
2018-04-06T23:03:46.824Z,5.20
2018-04-06T23:06:15.876Z,6.57
2018-04-06T23:08:44.966Z,6.43
2018-04-06T23:11:13.991Z,6.40
2018-04-06T23:13:45.696Z,7.70
2018-04-06T23:16:15.461Z,7.27
2018-04-06T23:18:44.391Z,5.53
2018-04-06T23:21:14.136Z,5.63
2018-04-06T23:23:43.226Z,3.63
2018-04-06T23:26:12.193Z,6.97
2018-04-06T23:28:42.167Z,3.47
2018-04-06T23:31:11.311Z,4.73
2018-04-06T23:33:41.099Z,5.23
2018-04-06T23:36:10.834Z,4.90
2018-04-06T23:38:39.772Z,5.57
2018-04-06T23:41:08.925Z,5.77
2018-04-06T23:43:38.298Z,4.90
2018-04-06T23:46:08.332Z,4.00
2018-04-06T23:48:38.394Z,7.70
2018-04-06T23:51:07.746Z,5.07
2018-04-06T23:53:37.944Z,5.30
2018-04-06T23:56:07.254Z,5.47
2018-04-06T23:58:36.663Z,4.60
